Time;durP1;ratioP1;P1;durP2;ratioP2;P2;SDS_P1;SDS_P2;PMS_P1;PMS_P2;Temp;Humidity;BMP_temperature;BMP_pressure;BME280_temperature;BME280_humidity;BME280_pressure;Samples;Min_cycle;Max_cycle;Signal;HPM_P1;HPM_P2
2021/03/20 00:00:15;;;;;;;8.00;3.60;;;;;;;;;;5096117;28;20024;-56
2021/03/20 00:02:41;;;;;;;7.10;3.55;;;;;;;;;;5113026;28;20050;-56
2021/03/20 00:05:08;;;;;;;7.60;3.70;;;;;;;;;;5099718;28;20372;-56
2021/03/20 00:07:34;;;;;;;7.43;3.80;;;;;;;;;;5107990;28;20572;-55
2021/03/20 00:10:00;;;;;;;6.65;3.53;;;;;;;;;;5097029;28;20257;-55
2021/03/20 00:12:26;;;;;;;9.00;3.33;;;;;;;;;;5104406;28;20096;-56
2021/03/20 00:14:52;;;;;;;5.57;2.83;;;;;;;;;;5103669;28;20024;-55
2021/03/20 00:17:18;;;;;;;9.80;3.88;;;;;;;;;;5099379;28;20353;-55
2021/03/20 00:19:44;;;;;;;6.90;3.45;;;;;;;;;;5113684;28;20019;-55
2021/03/20 00:22:10;;;;;;;9.65;3.67;;;;;;;;;;5095881;28;20024;-55
2021/03/20 00:24:36;;;;;;;10.18;3.83;;;;;;;;;;5105651;28;20464;-55
2021/03/20 00:27:02;;;;;;;4.68;2.90;;;;;;;;;;5103226;28;20103;-55
2021/03/20 00:29:28;;;;;;;8.63;3.80;;;;;;;;;;5095568;28;20095;-55
2021/03/20 00:31:54;;;;;;;7.63;2.95;;;;;;;;;;5105534;28;20360;-55
2021/03/20 00:34:20;;;;;;;4.78;2.67;;;;;;;;;;5099203;28;20030;-56
2021/03/20 00:36:46;;;;;;;6.93;3.20;;;;;;;;;;5102967;28;20368;-56
2021/03/20 00:39:12;;;;;;;8.07;3.42;;;;;;;;;;5103812;28;20027;-55
2021/03/20 00:41:38;;;;;;;5.80;3.55;;;;;;;;;;5103010;28;20141;-56
2021/03/20 00:44:05;;;;;;;7.45;3.55;;;;;;;;;;5108834;28;20031;-56
2021/03/20 00:46:31;;;;;;;5.32;3.50;;;;;;;;;;5115654;27;20047;-55
2021/03/20 00:48:57;;;;;;;7.18;3.05;;;;;;;;;;5115495;28;20031;-56
2021/03/20 00:51:23;;;;;;;7.22;3.83;;;;;;;;;;5115726;28;20027;-55
2021/03/20 00:53:49;;;;;;;8.63;3.90;;;;;;;;;;5115958;27;20051;-55
2021/03/20 00:56:15;;;;;;;9.60;3.78;;;;;;;;;;5115625;27;20023;-56
2021/03/20 00:58:44;;;;;;;9.40;3.58;;;;;;;;;;5115326;28;20027;-55
2021/03/20 01:01:12;;;;;;;6.05;3.35;;;;;;;;;;5115296;28;20015;-56
2021/03/20 01:03:38;;;;;;;7.32;3.33;;;;;;;;;;5115446;27;20368;-55
2021/03/20 01:06:08;;;;;;;7.47;3.47;;;;;;;;;;5115285;28;20406;-56
2021/03/20 01:08:34;;;;;;;9.48;3.78;;;;;;;;;;5115268;28;20069;-55
2021/03/20 01:11:01;;;;;;;10.90;3.33;;;;;;;;;;5115323;28;20024;-56
2021/03/20 01:13:27;;;;;;;7.63;3.47;;;;;;;;;;5115298;28;20024;-55
2021/03/20 01:15:52;;;;;;;5.25;3.08;;;;;;;;;;5115017;28;20031;-55
2021/03/20 01:18:19;;;;;;;4.63;3.40;;;;;;;;;;5115008;28;20042;-55
2021/03/20 01:20:45;;;;;;;7.45;3.33;;;;;;;;;;5106431;28;20090;-55
2021/03/20 01:23:11;;;;;;;4.93;3.13;;;;;;;;;;5095066;28;20294;-55
2021/03/20 01:25:38;;;;;;;6.00;3.28;;;;;;;;;;5094501;28;20381;-55
2021/03/20 01:28:04;;;;;;;4.53;2.63;;;;;;;;;;5094199;28;20055;-56
2021/03/20 01:30:32;;;;;;;7.32;3.58;;;;;;;;;;5094572;28;20028;-55
2021/03/20 01:32:58;;;;;;;6.78;2.83;;;;;;;;;;5094448;28;20028;-55
2021/03/20 01:35:24;;;;;;;6.40;2.80;;;;;;;;;;5094577;28;20024;-55
2021/03/20 01:37:50;;;;;;;6.40;3.63;;;;;;;;;;5094306;28;20053;-55
2021/03/20 01:40:18;;;;;;;4.63;3.20;;;;;;;;;;5093158;28;20035;-55
2021/03/20 01:42:45;;;;;;;8.50;3.38;;;;;;;;;;5093966;28;20032;-55
2021/03/20 01:45:19;;;;;;;6.85;3.28;;;;;;;;;;5094218;28;20032;-55
2021/03/20 01:47:57;;;;;;;7.10;3.17;;;;;;;;;;5094303;28;20023;-55
2021/03/20 01:50:26;;;;;;;9.23;3.50;;;;;;;;;;5093159;28;20438;-55
2021/03/20 01:52:54;;;;;;;6.05;3.15;;;;;;;;;;5094196;28;20024;-56
2021/03/20 01:55:21;;;;;;;4.82;3.05;;;;;;;;;;5093822;28;20035;-55
2021/03/20 01:57:53;;;;;;;7.18;3.25;;;;;;;;;;5093378;28;20476;-55
2021/03/20 02:00:23;;;;;;;6.85;3.08;;;;;;;;;;5094186;28;20137;-56
2021/03/20 02:02:49;;;;;;;5.88;3.28;;;;;;;;;;5094089;28;20154;-56
2021/03/20 02:05:18;;;;;;;5.55;3.20;;;;;;;;;;5093900;28;20044;-55
2021/03/20 02:07:44;;;;;;;5.85;2.97;;;;;;;;;;5093537;28;20027;-56
2021/03/20 02:10:11;;;;;;;6.68;3.50;;;;;;;;;;5093823;28;20031;-55
2021/03/20 02:12:38;;;;;;;10.70;3.92;;;;;;;;;;5093842;28;20095;-55
2021/03/20 02:15:04;;;;;;;6.20;3.30;;;;;;;;;;5093933;28;20074;-55
2021/03/20 02:17:56;;;;;;;5.65;3.00;;;;;;;;;;5093591;28;20016;-55
2021/03/20 02:20:31;;;;;;;7.15;3.05;;;;;;;;;;5076918;28;20062;-55
2021/03/20 02:22:57;;;;;;;8.57;3.03;;;;;;;;;;5093683;28;20028;-55
2021/03/20 02:25:34;;;;;;;8.10;3.72;;;;;;;;;;5093501;28;20043;-56
2021/03/20 02:28:10;;;;;;;7.07;3.40;;;;;;;;;;5093508;28;20065;-55
2021/03/20 02:30:45;;;;;;;4.93;3.13;;;;;;;;;;5093374;28;20028;-55
2021/03/20 02:33:11;;;;;;;8.15;3.08;;;;;;;;;;5093835;28;20031;-55
2021/03/20 02:36:04;;;;;;;5.80;2.95;;;;;;;;;;5093243;28;20038;-55
2021/03/20 02:38:51;;;;;;;4.85;2.85;;;;;;;;;;5070384;28;20120;-55
2021/03/20 02:41:26;;;;;;;8.35;3.58;;;;;;;;;;5070582;28;20055;-56
2021/03/20 02:43:52;;;;;;;4.85;3.25;;;;;;;;;;5070790;28;20106;-55
2021/03/20 02:46:24;;;;;;;6.20;3.63;;;;;;;;;;5070633;28;20025;-56
2021/03/20 02:48:49;;;;;;;6.75;2.85;;;;;;;;;;5070509;28;20061;-55
2021/03/20 02:51:21;;;;;;;4.88;2.97;;;;;;;;;;5070728;28;20106;-56
2021/03/20 02:54:03;;;;;;;5.82;3.17;;;;;;;;;;5070702;28;20432;-56
2021/03/20 02:56:30;;;;;;;5.82;3.00;;;;;;;;;;5070569;28;20032;-55
2021/03/20 02:59:02;;;;;;;5.43;3.28;;;;;;;;;;5070434;28;20048;-55
2021/03/20 03:01:29;;;;;;;6.10;3.47;;;;;;;;;;5072766;28;20043;-56
2021/03/20 03:03:55;;;;;;;6.82;3.45;;;;;;;;;;5057804;28;20039;-56
2021/03/20 03:06:30;;;;;;;6.57;4.07;;;;;;;;;;5065110;28;20025;-57
2021/03/20 03:09:01;;;;;;;11.82;3.20;;;;;;;;;;5070999;28;20044;-56
2021/03/20 03:11:33;;;;;;;7.40;2.78;;;;;;;;;;5069594;28;20035;-56
2021/03/20 03:14:12;;;;;;;7.20;3.45;;;;;;;;;;5074721;28;20025;-56
2021/03/20 03:16:48;;;;;;;7.30;3.08;;;;;;;;;;5097292;28;20031;-56
2021/03/20 03:19:24;;;;;;;5.57;3.03;;;;;;;;;;5097017;28;20016;-57
2021/03/20 03:21:53;;;;;;;5.82;2.95;;;;;;;;;;5114764;28;20288;-56
2021/03/20 03:24:21;;;;;;;5.90;2.78;;;;;;;;;;5117400;28;20371;-56
2021/03/20 03:26:50;;;;;;;6.00;2.97;;;;;;;;;;5100595;28;20081;-56
2021/03/20 03:29:18;;;;;;;5.97;3.20;;;;;;;;;;5096544;28;20445;-57
2021/03/20 03:31:44;;;;;;;5.55;2.92;;;;;;;;;;5097384;28;20028;-56
2021/03/20 03:34:20;;;;;;;4.32;2.83;;;;;;;;;;5096257;28;20040;-56
2021/03/20 03:36:50;;;;;;;6.05;3.30;;;;;;;;;;5096839;28;20020;-56
2021/03/20 03:39:27;;;;;;;5.22;2.72;;;;;;;;;;5096752;28;20373;-57
2021/03/20 03:41:53;;;;;;;6.82;3.00;;;;;;;;;;5096606;28;20039;-56
2021/03/20 03:44:19;;;;;;;5.07;2.85;;;;;;;;;;5095427;28;20043;-56
2021/03/20 03:46:47;;;;;;;9.00;3.58;;;;;;;;;;5096760;28;20024;-56
2021/03/20 03:49:14;;;;;;;4.18;2.85;;;;;;;;;;5096330;28;20020;-56
2021/03/20 03:51:40;;;;;;;4.65;2.95;;;;;;;;;;5096650;28;20024;-56
2021/03/20 03:54:07;;;;;;;4.72;3.00;;;;;;;;;;5096563;28;20028;-57
2021/03/20 03:56:39;;;;;;;4.75;2.72;;;;;;;;;;5095971;28;20513;-56
2021/03/20 03:59:08;;;;;;;6.30;2.50;;;;;;;;;;5096118;28;20032;-56
2021/03/20 04:01:54;;;;;;;4.50;2.55;;;;;;;;;;5096145;28;20023;-56
2021/03/20 04:04:20;;;;;;;5.07;2.90;;;;;;;;;;5096501;28;20036;-56
2021/03/20 04:06:54;;;;;;;4.78;2.88;;;;;;;;;;5096275;28;20449;-56
2021/03/20 04:09:26;;;;;;;3.67;2.70;;;;;;;;;;5096062;28;20102;-57
2021/03/20 04:11:56;;;;;;;6.75;3.55;;;;;;;;;;5095328;28;20043;-56
2021/03/20 04:14:42;;;;;;;5.97;3.45;;;;;;;;;;5095896;28;20055;-57
2021/03/20 04:17:14;;;;;;;5.60;3.17;;;;;;;;;;5087517;28;20473;-56
2021/03/20 04:19:46;;;;;;;5.70;2.80;;;;;;;;;;5095927;28;20077;-56
2021/03/20 04:22:18;;;;;;;5.57;2.55;;;;;;;;;;5100936;28;20356;-56
2021/03/20 04:24:47;;;;;;;6.85;2.60;;;;;;;;;;5116430;28;20114;-56
2021/03/20 04:27:16;;;;;;;7.03;2.30;;;;;;;;;;5115618;28;20115;-56
2021/03/20 04:29:56;;;;;;;4.68;2.97;;;;;;;;;;5114935;28;20031;-56
2021/03/20 04:32:25;;;;;;;3.17;2.47;;;;;;;;;;5116505;28;20080;-56
2021/03/20 04:35:17;;;;;;;4.30;2.63;;;;;;;;;;5114824;28;20448;-56
2021/03/20 04:37:48;;;;;;;6.03;3.13;;;;;;;;;;5113354;28;20039;-56
2021/03/20 04:40:26;;;;;;;5.03;2.65;;;;;;;;;;5116122;28;20028;-56
2021/03/20 04:42:52;;;;;;;6.40;2.85;;;;;;;;;;5115713;28;20027;-56
2021/03/20 04:45:26;;;;;;;4.68;2.60;;;;;;;;;;5115993;28;20028;-56
2021/03/20 04:47:53;;;;;;;5.47;2.50;;;;;;;;;;5115583;28;20027;-56
2021/03/20 04:50:22;;;;;;;3.67;2.40;;;;;;;;;;5115581;28;20032;-56
2021/03/20 04:52:49;;;;;;;4.68;2.88;;;;;;;;;;5115640;28;20019;-56
2021/03/20 04:55:16;;;;;;;3.80;2.80;;;;;;;;;;5115797;28;20020;-56
2021/03/20 04:57:57;;;;;;;5.00;3.03;;;;;;;;;;5115257;28;20089;-56
2021/03/20 05:00:42;;;;;;;6.78;2.75;;;;;;;;;;5115690;28;20034;-56
2021/03/20 05:03:28;;;;;;;4.85;2.40;;;;;;;;;;5115382;28;20023;-56
2021/03/20 05:05:59;;;;;;;5.15;2.70;;;;;;;;;;5115821;28;20039;-56
2021/03/20 05:08:29;;;;;;;4.65;2.70;;;;;;;;;;5115007;27;20470;-56
2021/03/20 05:10:59;;;;;;;5.18;3.05;;;;;;;;;;5115537;28;20062;-56
2021/03/20 05:13:47;;;;;;;6.22;2.95;;;;;;;;;;5113948;28;20058;-57
2021/03/20 05:16:16;;;;;;;4.30;2.42;;;;;;;;;;5113960;28;20030;-56
2021/03/20 05:18:50;;;;;;;4.60;3.10;;;;;;;;;;5114967;27;20441;-56
2021/03/20 05:21:26;;;;;;;6.00;2.45;;;;;;;;;;5102528;28;20684;-56
2021/03/20 05:23:53;;;;;;;5.15;2.72;;;;;;;;;;5114700;28;20043;-56
2021/03/20 05:26:19;;;;;;;4.97;2.83;;;;;;;;;;5115333;28;20023;-57
2021/03/20 05:28:45;;;;;;;4.68;2.60;;;;;;;;;;5113592;28;20030;-56
2021/03/20 05:31:11;;;;;;;4.93;3.13;;;;;;;;;;5113679;28;20118;-57
2021/03/20 05:33:38;;;;;;;5.30;2.83;;;;;;;;;;5114938;27;20104;-56
2021/03/20 05:36:04;;;;;;;4.20;2.63;;;;;;;;;;5114758;28;20027;-57
2021/03/20 05:38:30;;;;;;;4.82;2.83;;;;;;;;;;5114701;28;20019;-57
2021/03/20 05:40:59;;;;;;;5.10;2.97;;;;;;;;;;5113518;28;20334;-56
2021/03/20 05:43:32;;;;;;;4.75;2.92;;;;;;;;;;5114917;28;20035;-56
2021/03/20 05:46:04;;;;;;;4.28;2.83;;;;;;;;;;5114849;28;20039;-56
2021/03/20 05:48:32;;;;;;;12.00;3.42;;;;;;;;;;5113451;28;20052;-57
2021/03/20 05:51:24;;;;;;;7.32;2.95;;;;;;;;;;5095600;28;20031;-57
2021/03/20 05:53:50;;;;;;;4.28;2.45;;;;;;;;;;5094446;28;20028;-56
2021/03/20 05:56:16;;;;;;;4.45;2.67;;;;;;;;;;5094314;28;20533;-57
2021/03/20 05:58:50;;;;;;;3.85;2.83;;;;;;;;;;5093741;28;20032;-56
2021/03/20 06:01:35;;;;;;;6.35;3.15;;;;;;;;;;5093982;28;20103;-57
2021/03/20 06:04:01;;;;;;;5.90;3.20;;;;;;;;;;5093894;28;20020;-56
2021/03/20 06:06:46;;;;;;;6.95;2.92;;;;;;;;;;5094085;28;20028;-56
2021/03/20 06:09:30;;;;;;;4.10;2.90;;;;;;;;;;5093606;28;20024;-56
2021/03/20 06:12:05;;;;;;;8.10;2.75;;;;;;;;;;5094260;28;20035;-56
2021/03/20 06:14:34;;;;;;;3.53;2.42;;;;;;;;;;5094917;28;20118;-56
2021/03/20 06:17:14;;;;;;;6.22;2.63;;;;;;;;;;5113859;28;20027;-56
2021/03/20 06:19:43;;;;;;;4.07;2.45;;;;;;;;;;5114031;28;20045;-56
2021/03/20 06:22:34;;;;;;;3.95;2.58;;;;;;;;;;5094055;28;20490;-56
2021/03/20 06:25:26;;;;;;;3.15;2.05;;;;;;;;;;5093585;28;20119;-56
2021/03/20 06:27:53;;;;;;;3.78;2.78;;;;;;;;;;5090078;28;20067;-56
2021/03/20 06:30:41;;;;;;;4.40;2.70;;;;;;;;;;5113775;28;20120;-56
2021/03/20 06:33:12;;;;;;;4.45;2.72;;;;;;;;;;5114164;28;20175;-56
2021/03/20 06:35:42;;;;;;;5.32;3.08;;;;;;;;;;5113445;28;20026;-56
2021/03/20 06:38:10;;;;;;;3.63;2.58;;;;;;;;;;5113482;28;20349;-56
2021/03/20 06:40:49;;;;;;;3.05;2.17;;;;;;;;;;5114113;28;20114;-56
2021/03/20 06:43:17;;;;;;;5.93;3.20;;;;;;;;;;5113611;28;20070;-56
2021/03/20 06:45:43;;;;;;;7.43;3.15;;;;;;;;;;5113716;28;20368;-57
2021/03/20 06:48:20;;;;;;;8.70;3.33;;;;;;;;;;5113467;28;20027;-56
2021/03/20 06:50:48;;;;;;;5.70;2.60;;;;;;;;;;5113638;28;20024;-56
2021/03/20 06:53:16;;;;;;;5.40;2.90;;;;;;;;;;5113412;28;20030;-57
2021/03/20 06:55:44;;;;;;;5.80;3.15;;;;;;;;;;5113948;28;20024;-57
2021/03/20 06:58:24;;;;;;;5.05;2.95;;;;;;;;;;5113324;28;20030;-57
2021/03/20 07:00:50;;;;;;;7.32;3.33;;;;;;;;;;5113605;28;20023;-57
2021/03/20 07:03:35;;;;;;;6.70;3.33;;;;;;;;;;5113529;28;20024;-56
2021/03/20 07:06:12;;;;;;;6.00;3.63;;;;;;;;;;5113535;28;20356;-57
2021/03/20 07:08:48;;;;;;;6.32;3.28;;;;;;;;;;5113271;28;20073;-56
2021/03/20 07:11:20;;;;;;;6.80;2.72;;;;;;;;;;5113735;28;20020;-56
2021/03/20 07:13:47;;;;;;;4.75;3.10;;;;;;;;;;5113897;28;20020;-56
2021/03/20 07:16:14;;;;;;;4.75;2.85;;;;;;;;;;5113122;28;20024;-57
2021/03/20 07:18:48;;;;;;;7.25;3.50;;;;;;;;;;5113308;28;20043;-56
2021/03/20 07:21:20;;;;;;;6.90;3.80;;;;;;;;;;5100780;28;20070;-57
2021/03/20 07:23:53;;;;;;;3.65;2.55;;;;;;;;;;5092925;28;20043;-56
2021/03/20 07:26:19;;;;;;;5.28;3.00;;;;;;;;;;5092833;28;20024;-56
2021/03/20 07:28:50;;;;;;;5.90;3.33;;;;;;;;;;5092330;28;20028;-56
2021/03/20 07:31:16;;;;;;;4.05;2.58;;;;;;;;;;5093074;28;20024;-56
2021/03/20 07:33:44;;;;;;;6.18;3.10;;;;;;;;;;5095606;28;20024;-56
2021/03/20 07:36:29;;;;;;;5.95;3.45;;;;;;;;;;5111795;28;20028;-56
2021/03/20 07:39:07;;;;;;;9.77;3.35;;;;;;;;;;5112663;28;20070;-56
2021/03/20 07:41:53;;;;;;;6.20;3.35;;;;;;;;;;5113200;28;20047;-57
2021/03/20 07:44:19;;;;;;;7.60;3.58;;;;;;;;;;5113074;28;20117;-57
2021/03/20 07:46:45;;;;;;;11.63;2.63;;;;;;;;;;5114092;28;20026;-56
2021/03/20 07:49:20;;;;;;;3.70;2.80;;;;;;;;;;5116639;28;20094;-56
2021/03/20 07:51:48;;;;;;;5.60;2.78;;;;;;;;;;5117441;28;20081;-56
2021/03/20 07:54:19;;;;;;;4.65;3.00;;;;;;;;;;5116921;28;20023;-56
2021/03/20 07:56:45;;;;;;;5.78;3.42;;;;;;;;;;5116826;28;20016;-56
2021/03/20 07:59:26;;;;;;;8.00;3.55;;;;;;;;;;5116536;28;20055;-56
2021/03/20 08:01:53;;;;;;;5.70;3.38;;;;;;;;;;5116680;28;20038;-56
2021/03/20 08:04:39;;;;;;;6.53;3.28;;;;;;;;;;5116757;28;20048;-56
2021/03/20 08:07:06;;;;;;;5.90;3.50;;;;;;;;;;5116459;28;20024;-56
2021/03/20 08:09:32;;;;;;;7.25;3.15;;;;;;;;;;5116933;28;20028;-56
2021/03/20 08:11:58;;;;;;;5.15;3.15;;;;;;;;;;5116647;28;20106;-56
2021/03/20 08:14:27;;;;;;;4.70;3.17;;;;;;;;;;5116006;28;20111;-56
2021/03/20 08:16:53;;;;;;;4.78;3.15;;;;;;;;;;5116747;28;20023;-56
2021/03/20 08:19:20;;;;;;;5.05;2.75;;;;;;;;;;5114894;28;20123;-56
2021/03/20 08:22:06;;;;;;;3.15;2.63;;;;;;;;;;5099053;28;20032;-56
2021/03/20 08:24:51;;;;;;;5.28;2.75;;;;;;;;;;5095873;28;20075;-56
2021/03/20 08:27:44;;;;;;;2.92;2.10;;;;;;;;;;5095836;28;20107;-56
2021/03/20 08:30:28;;;;;;;2.88;1.83;;;;;;;;;;5095760;28;20050;-56
2021/03/20 08:33:08;;;;;;;3.10;1.90;;;;;;;;;;5095899;28;20467;-56
2021/03/20 08:35:34;;;;;;;3.58;2.30;;;;;;;;;;5095745;28;20024;-56
2021/03/20 08:38:15;;;;;;;3.70;2.15;;;;;;;;;;5103617;28;20027;-56
2021/03/20 08:40:47;;;;;;;2.83;1.90;;;;;;;;;;5104108;28;20012;-56
2021/03/20 08:43:25;;;;;;;4.32;1.65;;;;;;;;;;5097246;27;20031;-56
2021/03/20 08:45:52;;;;;;;3.78;2.10;;;;;;;;;;5095043;28;20044;-56
2021/03/20 08:48:30;;;;;;;3.70;2.15;;;;;;;;;;5095369;28;20020;-56
2021/03/20 08:51:06;;;;;;;3.40;1.90;;;;;;;;;;5095510;28;20028;-56
2021/03/20 08:54:10;;;;;;;6.28;2.40;;;;;;;;;;5112008;28;20028;-56
2021/03/20 08:56:36;;;;;;;3.35;2.00;;;;;;;;;;5072443;28;20429;-56
2021/03/20 08:59:03;;;;;;;2.58;1.73;;;;;;;;;;5072006;28;20466;-56
2021/03/20 09:01:36;;;;;;;4.28;1.92;;;;;;;;;;5072519;28;20347;-56
2021/03/20 09:04:04;;;;;;;4.00;2.28;;;;;;;;;;5072626;28;20107;-56
2021/03/20 09:06:33;;;;;;;5.50;2.40;;;;;;;;;;5058330;28;20029;-56
2021/03/20 09:09:04;;;;;;;6.70;2.00;;;;;;;;;;5052283;28;20115;-56
2021/03/20 09:11:39;;;;;;;5.68;2.03;;;;;;;;;;5052418;28;20194;-56
2021/03/20 09:14:16;;;;;;;6.68;2.20;;;;;;;;;;5038058;28;20045;-56
2021/03/20 09:16:58;;;;;;;5.10;2.08;;;;;;;;;;5052333;28;20025;-56
2021/03/20 09:19:35;;;;;;;4.93;2.90;;;;;;;;;;5052295;28;20029;-56
2021/03/20 09:22:21;;;;;;;3.97;2.17;;;;;;;;;;5071050;28;20110;-56
2021/03/20 09:24:52;;;;;;;9.77;3.30;;;;;;;;;;5072239;28;20175;-56
2021/03/20 09:27:37;;;;;;;6.38;2.70;;;;;;;;;;5082443;28;20035;-56
2021/03/20 09:30:14;;;;;;;7.32;2.80;;;;;;;;;;5094672;28;20030;-56
2021/03/20 09:32:47;;;;;;;4.43;2.50;;;;;;;;;;5094733;28;20048;-56
2021/03/20 09:35:23;;;;;;;4.25;2.50;;;;;;;;;;5094602;28;20353;-56
2021/03/20 09:37:51;;;;;;;4.85;1.83;;;;;;;;;;5093998;28;20123;-56
2021/03/20 09:40:36;;;;;;;3.92;2.05;;;;;;;;;;5094474;28;20020;-56
2021/03/20 09:43:17;;;;;;;5.35;1.83;;;;;;;;;;5094560;28;20121;-56
2021/03/20 09:45:43;;;;;;;8.25;2.22;;;;;;;;;;5094297;28;20044;-56
2021/03/20 09:48:09;;;;;;;2.65;1.77;;;;;;;;;;5093817;28;20020;-56
2021/03/20 09:50:36;;;;;;;2.92;1.95;;;;;;;;;;5094029;28;20508;-56
2021/03/20 09:53:08;;;;;;;3.28;1.83;;;;;;;;;;5099795;28;20023;-56
2021/03/20 09:55:34;;;;;;;2.58;1.83;;;;;;;;;;5095537;28;20346;-56
2021/03/20 09:58:01;;;;;;;2.03;1.65;;;;;;;;;;5099073;28;20456;-56
2021/03/20 10:00:45;;;;;;;2.22;1.70;;;;;;;;;;5102366;28;20020;-56
2021/03/20 10:03:12;;;;;;;5.78;1.63;;;;;;;;;;5101744;28;20017;-56
2021/03/20 10:05:38;;;;;;;5.28;2.08;;;;;;;;;;5102187;28;20070;-56
2021/03/20 10:08:20;;;;;;;1.95;1.73;;;;;;;;;;5093741;28;20027;-56
2021/03/20 10:10:48;;;;;;;3.50;2.42;;;;;;;;;;5093122;28;20031;-56
2021/03/20 10:13:14;;;;;;;6.65;2.10;;;;;;;;;;5094084;28;20099;-56
2021/03/20 10:15:52;;;;;;;6.55;2.40;;;;;;;;;;5093986;28;20103;-56
2021/03/20 10:18:24;;;;;;;3.20;2.13;;;;;;;;;;5093708;28;20032;-56
2021/03/20 10:20:56;;;;;;;2.88;2.10;;;;;;;;;;5102375;28;20073;-56
2021/03/20 10:23:35;;;;;;;3.20;1.88;;;;;;;;;;5106131;28;20032;-56
2021/03/20 10:26:03;;;;;;;3.50;1.85;;;;;;;;;;5093515;28;20461;-56
2021/03/20 10:28:29;;;;;;;3.75;1.52;;;;;;;;;;5093671;28;20032;-57
2021/03/20 10:31:14;;;;;;;2.72;1.75;;;;;;;;;;5093472;28;20454;-56
2021/03/20 10:33:42;;;;;;;5.85;1.88;;;;;;;;;;5093864;28;20085;-56
2021/03/20 10:36:10;;;;;;;4.75;1.73;;;;;;;;;;5093554;28;20043;-56
2021/03/20 10:38:36;;;;;;;4.65;2.42;;;;;;;;;;5093059;28;20032;-56
2021/03/20 10:41:02;;;;;;;3.55;2.20;;;;;;;;;;5093297;28;20106;-56
2021/03/20 10:43:28;;;;;;;4.35;1.50;;;;;;;;;;5093358;28;20056;-56
2021/03/20 10:45:54;;;;;;;2.95;1.40;;;;;;;;;;5093441;28;20028;-56
2021/03/20 10:48:27;;;;;;;2.80;1.75;;;;;;;;;;5092975;28;20445;-56
2021/03/20 10:50:58;;;;;;;6.63;2.03;;;;;;;;;;5093298;28;20024;-56
2021/03/20 10:53:28;;;;;;;7.20;2.08;;;;;;;;;;5092991;28;20106;-56
2021/03/20 10:55:58;;;;;;;2.38;1.80;;;;;;;;;;5093552;28;20106;-57
2021/03/20 10:58:31;;;;;;;7.32;1.70;;;;;;;;;;5092898;28;20021;-56
2021/03/20 11:00:57;;;;;;;1.98;1.63;;;;;;;;;;5093697;28;20342;-56
2021/03/20 11:03:35;;;;;;;2.45;1.80;;;;;;;;;;5092996;28;20020;-56
2021/03/20 11:06:08;;;;;;;2.63;1.50;;;;;;;;;;5092872;28;20046;-56
2021/03/20 11:08:35;;;;;;;3.63;1.52;;;;;;;;;;5093202;28;20024;-56
2021/03/20 11:11:14;;;;;;;3.95;1.63;;;;;;;;;;5093222;28;20081;-56
2021/03/20 11:13:45;;;;;;;4.55;1.65;;;;;;;;;;5091972;28;20110;-56
2021/03/20 11:16:11;;;;;;;;;;;;;;;;;;5093347;28;20339;-56
2021/03/20 11:18:41;;;;;;;5.30;1.55;;;;;;;;;;5092594;28;20357;-56
2021/03/20 11:21:14;;;;;;;3.75;2.08;;;;;;;;;;5093402;28;20047;-56
2021/03/20 11:23:40;;;;;;;3.17;1.90;;;;;;;;;;5096835;28;20020;-56
2021/03/20 11:26:11;;;;;;;5.50;1.70;;;;;;;;;;5096779;28;20035;-56
2021/03/20 11:28:38;;;;;;;3.20;1.80;;;;;;;;;;5096746;28;20035;-57
2021/03/20 11:31:04;;;;;;;2.72;1.42;;;;;;;;;;5096856;28;20012;-56
2021/03/20 11:33:33;;;;;;;1.95;1.40;;;;;;;;;;5096817;28;20028;-56
2021/03/20 11:36:01;;;;;;;2.83;1.80;;;;;;;;;;5097945;28;20115;-56
2021/03/20 11:38:27;;;;;;;2.55;1.55;;;;;;;;;;5099205;28;20016;-56
2021/03/20 11:41:02;;;;;;;2.30;1.52;;;;;;;;;;5107801;28;20358;-57
2021/03/20 11:43:31;;;;;;;3.63;1.60;;;;;;;;;;5115093;28;20036;-56
2021/03/20 11:46:09;;;;;;;2.65;1.70;;;;;;;;;;5108560;28;20042;-56
2021/03/20 11:48:37;;;;;;;3.72;1.77;;;;;;;;;;5116905;28;20508;-57
2021/03/20 11:51:05;;;;;;;1.60;1.40;;;;;;;;;;5115737;28;20024;-56
2021/03/20 11:53:34;;;;;;;2.17;1.33;;;;;;;;;;5116981;28;20046;-56
2021/03/20 11:56:00;;;;;;;3.40;1.58;;;;;;;;;;5115615;28;20357;-56
2021/03/20 11:58:31;;;;;;;2.83;1.80;;;;;;;;;;5104528;28;20023;-54
2021/03/20 12:00:58;;;;;;;2.15;1.55;;;;;;;;;;5116620;28;20032;-54
2021/03/20 12:03:24;;;;;;;2.53;1.58;;;;;;;;;;5116757;27;20069;-54
2021/03/20 12:05:52;;;;;;;3.45;1.50;;;;;;;;;;5116815;28;20046;-54
2021/03/20 12:08:27;;;;;;;7.13;1.77;;;;;;;;;;5116174;28;20024;-54
2021/03/20 12:10:56;;;;;;;1.88;1.60;;;;;;;;;;5116980;28;20466;-54
2021/03/20 12:13:43;;;;;;;3.90;1.33;;;;;;;;;;5116437;27;20433;-54
2021/03/20 12:16:21;;;;;;;1.98;1.50;;;;;;;;;;5116674;28;20106;-55
2021/03/20 12:18:47;;;;;;;1.55;1.30;;;;;;;;;;5115960;28;20425;-54
2021/03/20 12:21:13;;;;;;;5.53;1.50;;;;;;;;;;5103679;27;20473;-54
2021/03/20 12:23:39;;;;;;;2.55;1.30;;;;;;;;;;5111337;28;20035;-54
2021/03/20 12:26:18;;;;;;;5.32;1.95;;;;;;;;;;5104638;28;20364;-54
2021/03/20 12:28:45;;;;;;;3.22;1.70;;;;;;;;;;5105928;28;20030;-54
2021/03/20 12:31:14;;;;;;;1.30;1.20;;;;;;;;;;5109388;28;20107;-54
2021/03/20 12:33:49;;;;;;;5.18;1.33;;;;;;;;;;5108796;28;20055;-54
2021/03/20 12:36:18;;;;;;;1.92;1.38;;;;;;;;;;5110220;28;20124;-54
2021/03/20 12:38:44;;;;;;;4.57;1.80;;;;;;;;;;5115576;28;20098;-54
2021/03/20 12:41:16;;;;;;;3.13;1.88;;;;;;;;;;5107526;28;20046;-54
2021/03/20 12:43:42;;;;;;;3.20;1.52;;;;;;;;;;5115730;28;20039;-54
2021/03/20 12:46:09;;;;;;;3.75;1.60;;;;;;;;;;5116370;28;20335;-54
2021/03/20 12:48:38;;;;;;;5.45;1.90;;;;;;;;;;5115753;28;20028;-54
2021/03/20 12:51:09;;;;;;;2.15;1.35;;;;;;;;;;5115850;28;20028;-54
2021/03/20 12:53:35;;;;;;;3.15;1.70;;;;;;;;;;5115654;28;20053;-54
2021/03/20 12:56:01;;;;;;;1.38;1.25;;;;;;;;;;5115948;28;20019;-55
2021/03/20 12:58:27;;;;;;;3.33;1.60;;;;;;;;;;5115103;28;20027;-56
2021/03/20 13:00:53;;;;;;;1.83;1.40;;;;;;;;;;5114394;28;20030;-56
2021/03/20 13:03:20;;;;;;;1.77;1.23;;;;;;;;;;5097288;28;20040;-55
2021/03/20 13:05:46;;;;;;;1.52;1.17;;;;;;;;;;5095347;28;20036;-55
2021/03/20 13:08:13;;;;;;;4.18;1.50;;;;;;;;;;5095008;28;20066;-56
2021/03/20 13:10:40;;;;;;;5.38;1.70;;;;;;;;;;5095094;28;20036;-56
2021/03/20 13:13:06;;;;;;;3.75;1.50;;;;;;;;;;5094787;28;20020;-56
2021/03/20 13:15:32;;;;;;;1.48;1.10;;;;;;;;;;5094891;28;20442;-53
2021/03/20 13:17:58;;;;;;;2.17;1.40;;;;;;;;;;5095002;28;20039;-53
2021/03/20 13:20:25;;;;;;;3.20;1.45;;;;;;;;;;5100638;28;20011;-53
2021/03/20 13:22:53;;;;;;;1.48;1.38;;;;;;;;;;5115371;28;20059;-53
2021/03/20 13:25:29;;;;;;;2.10;1.40;;;;;;;;;;5115038;28;20042;-53
2021/03/20 13:27:56;;;;;;;2.35;1.63;;;;;;;;;;5114972;28;20024;-52
2021/03/20 13:30:23;;;;;;;4.20;1.58;;;;;;;;;;5114990;28;20533;-53
2021/03/20 13:32:50;;;;;;;2.13;1.92;;;;;;;;;;5115452;28;20326;-53
2021/03/20 13:35:16;;;;;;;2.58;1.45;;;;;;;;;;5115283;28;20019;-53
2021/03/20 13:37:42;;;;;;;1.50;1.20;;;;;;;;;;5114692;28;20019;-53
2021/03/20 13:40:09;;;;;;;5.30;1.70;;;;;;;;;;5114612;28;20028;-56
2021/03/20 13:42:35;;;;;;;2.03;1.10;;;;;;;;;;5114971;28;20388;-55
2021/03/20 13:45:01;;;;;;;2.80;1.60;;;;;;;;;;5114655;28;20067;-56
2021/03/20 13:47:27;;;;;;;2.17;1.30;;;;;;;;;;5114675;28;20023;-55
2021/03/20 13:49:53;;;;;;;1.98;1.20;;;;;;;;;;5114560;28;20028;-56
2021/03/20 13:52:19;;;;;;;2.17;1.27;;;;;;;;;;5114777;28;20114;-55
2021/03/20 13:54:47;;;;;;;2.17;1.55;;;;;;;;;;5114209;28;20028;-55
2021/03/20 13:57:13;;;;;;;2.22;1.10;;;;;;;;;;5113966;28;20115;-55
2021/03/20 13:59:39;;;;;;;2.33;1.35;;;;;;;;;;5114484;28;20103;-54
2021/03/20 14:02:05;;;;;;;1.67;1.50;;;;;;;;;;5111285;28;20454;-56
2021/03/20 14:04:31;;;;;;;3.05;1.40;;;;;;;;;;5093896;28;20028;-56
2021/03/20 14:07:10;;;;;;;2.58;1.80;;;;;;;;;;5093955;28;20520;-56
2021/03/20 14:09:37;;;;;;;3.67;1.90;;;;;;;;;;5094033;28;20339;-56
2021/03/20 14:12:03;;;;;;;4.18;1.40;;;;;;;;;;5094581;28;20606;-56
2021/03/20 14:14:29;;;;;;;4.90;1.55;;;;;;;;;;5102892;28;20080;-56
2021/03/20 14:16:55;;;;;;;2.75;1.33;;;;;;;;;;5096784;28;20099;-56
2021/03/20 14:19:21;;;;;;;3.20;1.48;;;;;;;;;;5102810;28;20028;-56
2021/03/20 14:21:47;;;;;;;2.05;1.30;;;;;;;;;;5098680;28;20031;-56
2021/03/20 14:24:13;;;;;;;1.48;1.23;;;;;;;;;;5093324;28;20020;-56
2021/03/20 14:26:39;;;;;;;2.95;1.00;;;;;;;;;;5106770;28;20037;-56
2021/03/20 14:29:05;;;;;;;3.67;2.08;;;;;;;;;;5113324;28;20019;-57
2021/03/20 14:31:31;;;;;;;9.15;2.65;;;;;;;;;;5113305;28;20433;-57
2021/03/20 14:33:57;;;;;;;8.90;2.80;;;;;;;;;;5110828;28;20012;-57
2021/03/20 14:36:23;;;;;;;8.50;1.33;;;;;;;;;;5092807;28;20024;-56
2021/03/20 14:38:50;;;;;;;2.13;1.42;;;;;;;;;;5093027;28;20024;-56
2021/03/20 14:41:16;;;;;;;4.03;2.10;;;;;;;;;;5093429;28;20020;-56
2021/03/20 14:43:41;;;;;;;4.13;1.63;;;;;;;;;;5093536;28;20078;-56
2021/03/20 14:46:07;;;;;;;4.97;2.20;;;;;;;;;;5093327;28;20036;-56
2021/03/20 14:48:34;;;;;;;2.63;1.52;;;;;;;;;;5093043;28;20395;-56
2021/03/20 14:51:00;;;;;;;5.45;1.17;;;;;;;;;;5095649;28;20056;-56
2021/03/20 14:53:26;;;;;;;1.92;1.17;;;;;;;;;;5113735;28;20028;-57
2021/03/20 14:55:52;;;;;;;2.63;1.52;;;;;;;;;;5113177;28;20047;-57
2021/03/20 14:58:18;;;;;;;3.25;1.45;;;;;;;;;;5112812;28;20209;-57
2021/03/20 15:00:46;;;;;;;2.10;1.30;;;;;;;;;;5113585;28;20024;-56
2021/03/20 15:03:12;;;;;;;3.78;1.40;;;;;;;;;;5113501;28;20016;-57